createdAt,value
2023-04-06T00:00:10.593Z,49.5816
2023-04-06T00:01:11.809Z,49.6239
2023-04-06T00:02:12.847Z,49.6658
2023-04-06T00:03:13.516Z,49.7161
2023-04-06T00:04:13.572Z,49.7664
2023-04-06T00:05:14.869Z,49.8174
2023-04-06T00:06:17.212Z,49.8660
2023-04-06T00:07:17.412Z,49.9137
2023-04-06T00:08:18.435Z,49.9636
2023-04-06T00:09:18.765Z,50.0140
2023-04-06T00:10:19.779Z,50.0638
2023-04-06T00:11:21.029Z,50.1041
2023-04-06T00:12:22.077Z,50.1451
2023-04-06T00:13:23.356Z,50.1829
2023-04-06T00:14:24.377Z,50.2212
2023-04-06T00:15:25.743Z,50.2545
2023-04-06T00:16:29.027Z,50.2837
2023-04-06T00:17:27.537Z,50.3171
2023-04-06T00:18:27.573Z,50.3442
2023-04-06T00:19:28.992Z,50.3737
2023-04-06T00:20:30.376Z,50.3983
2023-04-06T00:21:31.330Z,50.4212
2023-04-06T00:22:32.704Z,50.4371
2023-04-06T00:23:33.603Z,50.4535
2023-04-06T00:24:35.208Z,50.4693
2023-04-06T00:25:36.344Z,50.4887
2023-04-06T00:26:37.655Z,50.5158
2023-04-06T00:27:38.779Z,50.5419
2023-04-06T00:28:39.267Z,50.5661
2023-04-06T00:29:40.667Z,50.5915
2023-04-06T00:30:41.623Z,50.6125
2023-04-06T00:31:42.958Z,50.6259
2023-04-06T00:32:44.325Z,50.6396
2023-04-06T00:33:44.227Z,50.6534
2023-04-06T00:34:44.414Z,50.6728
2023-04-06T00:35:45.856Z,50.6868
2023-04-06T00:36:47.050Z,50.6993
2023-04-06T00:37:48.487Z,50.7170
2023-04-06T00:38:49.626Z,50.7351
2023-04-06T00:39:51.149Z,50.7530
2023-04-06T00:40:52.311Z,50.7720
2023-04-06T00:41:53.684Z,50.7947
2023-04-06T00:42:55.105Z,50.8236
2023-04-06T00:43:56.327Z,50.8541
2023-04-06T00:44:57.714Z,50.8821
2023-04-06T00:45:59.048Z,50.9115
2023-04-06T00:47:00.315Z,50.9419
2023-04-06T00:48:01.889Z,50.9727
2023-04-06T00:49:01.792Z,51.0059
2023-04-06T00:50:02.302Z,51.0379
2023-04-06T00:51:03.683Z,51.0757
2023-04-06T00:52:04.896Z,51.1115
2023-04-06T00:53:06.107Z,51.1474
2023-04-06T00:54:07.195Z,51.1836
2023-04-06T00:55:08.413Z,51.2194
2023-04-06T00:56:09.536Z,51.2567
2023-04-06T00:57:10.676Z,51.2845
2023-04-06T00:58:12.281Z,51.3087
2023-04-06T00:59:13.347Z,51.3274
2023-04-06T01:00:13.757Z,51.3447
2023-04-06T01:01:15.114Z,51.3542
2023-04-06T01:02:15.331Z,51.3434
2023-04-06T01:03:15.323Z,51.3244
2023-04-06T01:04:16.572Z,51.3019
2023-04-06T01:05:16.755Z,51.2829
2023-04-06T01:06:16.828Z,51.2642
2023-04-06T01:07:18.405Z,51.2590
2023-04-06T01:08:19.522Z,51.2562
2023-04-06T01:09:20.059Z,51.2573
2023-04-06T01:10:21.257Z,51.2654
2023-04-06T01:11:22.411Z,51.2784
2023-04-06T01:12:23.458Z,51.2895
2023-04-06T01:13:24.728Z,51.3060
2023-04-06T01:14:26.023Z,51.3211
2023-04-06T01:15:27.315Z,51.3387
2023-04-06T01:16:28.641Z,51.3577
2023-04-06T01:17:28.681Z,51.3824
2023-04-06T01:18:29.102Z,51.4106
2023-04-06T01:19:30.594Z,51.4443
2023-04-06T01:20:31.717Z,51.4775
2023-04-06T01:21:32.954Z,51.5181
2023-04-06T01:22:33.807Z,51.5600
2023-04-06T01:23:35.029Z,51.5994
2023-04-06T01:24:36.107Z,51.6309
2023-04-06T01:25:37.380Z,51.6732
2023-04-06T01:26:38.424Z,51.7109
2023-04-06T01:27:39.785Z,51.7466
2023-04-06T01:28:41.048Z,51.7892
2023-04-06T01:29:41.418Z,51.8276
2023-04-06T01:30:42.561Z,51.8691
2023-04-06T01:31:42.949Z,51.9031
2023-04-06T01:32:44.138Z,51.9334
2023-04-06T01:33:44.479Z,51.9630
2023-04-06T01:34:45.537Z,51.9932
2023-04-06T01:35:46.942Z,52.0220
2023-04-06T01:36:48.158Z,52.0504
2023-04-06T01:37:49.491Z,52.0789
2023-04-06T01:38:50.558Z,52.1071
2023-04-06T01:39:51.777Z,52.1340
2023-04-06T01:40:52.902Z,52.1615
2023-04-06T01:41:52.942Z,52.1907
2023-04-06T01:42:54.222Z,52.2256
2023-04-06T01:44:55.071Z,52.2963
2023-04-06T01:45:56.357Z,52.3107
2023-04-06T01:46:56.735Z,52.3144
2023-04-06T01:47:56.900Z,52.3139
2023-04-06T01:48:58.283Z,52.3200
2023-04-06T01:49:58.334Z,52.3328
2023-04-06T01:50:59.571Z,52.3503
2023-04-06T01:52:00.808Z,52.3733
2023-04-06T01:53:00.894Z,52.4052
2023-04-06T01:54:02.198Z,52.4393
2023-04-06T01:55:03.314Z,52.4641
2023-04-06T01:56:04.695Z,52.4856
2023-04-06T01:57:05.832Z,52.5050
2023-04-06T01:58:07.326Z,52.5259
2023-04-06T01:59:08.789Z,52.5483
2023-04-06T02:00:09.024Z,52.5707
2023-04-06T02:01:09.109Z,52.5964
2023-04-06T02:02:10.534Z,52.6244
2023-04-06T02:03:11.445Z,52.6573
2023-04-06T02:04:11.952Z,52.6911
2023-04-06T02:05:13.010Z,52.7202
2023-04-06T02:06:14.412Z,52.7500
2023-04-06T02:07:15.635Z,52.7798
2023-04-06T02:09:15.961Z,52.8351
2023-04-06T02:10:15.968Z,52.8611
2023-04-06T02:11:17.243Z,52.8818
2023-04-06T02:12:18.514Z,52.9046
2023-04-06T02:13:19.803Z,52.9274
2023-04-06T02:14:19.977Z,52.9493
2023-04-06T02:15:21.047Z,52.9734
2023-04-06T02:16:22.462Z,52.9942
2023-04-06T02:17:23.816Z,53.0185
2023-04-06T02:18:24.654Z,53.0434
2023-04-06T02:19:25.729Z,53.0606
2023-04-06T02:20:25.783Z,53.0721
2023-04-06T02:21:26.891Z,53.0874
2023-04-06T02:22:28.413Z,53.1038
2023-04-06T02:23:29.544Z,53.1173
2023-04-06T02:24:29.733Z,53.1350
2023-04-06T02:25:29.607Z,53.1580
2023-04-06T02:26:30.868Z,53.1898
2023-04-06T02:27:30.975Z,53.2154
2023-04-06T02:28:31.213Z,53.2366
2023-04-06T02:29:32.489Z,53.2602
2023-04-06T02:30:32.431Z,53.2857
2023-04-06T02:31:33.789Z,53.3033
2023-04-06T02:32:34.130Z,53.3211
2023-04-06T02:33:35.478Z,53.3388
2023-04-06T02:34:36.867Z,53.3608
2023-04-06T02:35:38.273Z,53.3798
2023-04-06T02:36:38.307Z,53.4020
2023-04-06T02:37:38.400Z,53.4178
2023-04-06T02:38:38.514Z,53.4272
2023-04-06T02:39:39.645Z,53.4385
2023-04-06T02:40:41.225Z,53.4534
2023-04-06T02:41:42.345Z,53.4659
2023-04-06T02:42:43.671Z,53.4800
2023-04-06T02:43:45.008Z,53.4955
2023-04-06T02:44:46.273Z,53.5120
2023-04-06T02:45:47.463Z,53.5352
2023-04-06T02:46:47.538Z,53.5513
2023-04-06T02:47:48.636Z,53.5708
2023-04-06T02:48:50.170Z,53.5882
2023-04-06T02:49:50.040Z,53.6072
2023-04-06T02:50:51.388Z,53.6268
2023-04-06T02:51:52.495Z,53.6430
2023-04-06T02:52:52.555Z,53.6576
2023-04-06T02:53:53.803Z,53.6736
2023-04-06T02:55:54.749Z,53.7083
2023-04-06T02:56:54.817Z,53.7253
2023-04-06T02:57:56.109Z,53.7400
2023-04-06T02:58:56.343Z,53.7564
2023-04-06T02:59:56.389Z,53.7766
2023-04-06T03:00:56.494Z,53.7976
2023-04-06T03:01:57.354Z,53.8149
2023-04-06T03:03:07.417Z,53.8322
2023-04-06T03:04:17.785Z,53.8768
2023-04-06T03:05:27.474Z,53.9008
2023-04-06T03:06:49.642Z,53.9458
2023-04-06T03:07:29.038Z,53.9758
2023-04-06T03:09:14.805Z,53.9721
2023-04-06T03:09:31.054Z,54.0319
2023-04-06T03:10:32.320Z,54.0239
2023-04-06T03:11:33.684Z,54.0234
2023-04-06T03:12:34.807Z,54.0347
2023-04-06T03:13:36.057Z,54.0513
2023-04-06T03:14:37.563Z,54.0662
2023-04-06T03:15:37.607Z,54.0880
2023-04-06T03:16:38.014Z,54.1065
2023-04-06T03:17:39.151Z,54.1217
2023-04-06T03:18:39.515Z,54.1375
2023-04-06T03:19:40.521Z,54.1528
2023-04-06T03:20:41.001Z,54.1710
2023-04-06T03:21:41.050Z,54.1865
2023-04-06T03:22:42.286Z,54.2010
2023-04-06T03:23:42.383Z,54.2154
2023-04-06T03:24:43.497Z,54.2285
2023-04-06T03:25:44.882Z,54.2435
2023-04-06T03:26:46.029Z,54.2574
2023-04-06T03:28:47.004Z,54.2783
2023-04-06T03:29:48.342Z,54.2898
2023-04-06T03:30:49.607Z,54.3004
2023-04-06T03:31:49.758Z,54.3117
2023-04-06T03:32:51.162Z,54.3314
2023-04-06T03:33:51.352Z,54.3430
2023-04-06T03:34:52.525Z,54.3567
2023-04-06T03:35:52.915Z,54.3731
2023-04-06T03:37:03.228Z,54.3858
2023-04-06T03:37:54.626Z,54.4155
2023-04-06T03:38:54.654Z,54.4192
2023-04-06T03:39:55.902Z,54.4276
2023-04-06T03:40:57.371Z,54.4327
2023-04-06T03:41:58.565Z,54.4338
2023-04-06T03:42:58.631Z,54.4358
2023-04-06T03:43:59.814Z,54.4407
2023-04-06T03:45:01.157Z,54.4460
2023-04-06T03:46:02.354Z,54.4522
2023-04-06T03:47:02.651Z,54.4614
2023-04-06T03:48:02.794Z,54.4714
2023-04-06T03:49:02.909Z,54.4827
2023-04-06T03:50:03.237Z,54.4955
2023-04-06T03:51:03.341Z,54.5082
2023-04-06T03:52:04.432Z,54.5221
2023-04-06T03:53:04.502Z,54.5333
2023-04-06T03:54:05.666Z,54.5465
2023-04-06T03:55:06.955Z,54.5626
2023-04-06T03:56:08.263Z,54.5762
2023-04-06T03:57:08.238Z,54.5933
2023-04-06T03:58:09.413Z,54.6085
2023-04-06T03:59:10.670Z,54.6214
2023-04-06T04:00:10.868Z,54.6357
2023-04-06T04:01:11.019Z,54.6406
2023-04-06T04:02:11.191Z,54.6480
2023-04-06T04:03:12.096Z,54.6610
2023-04-06T04:04:13.255Z,54.6787
2023-04-06T04:05:14.583Z,54.6902
2023-04-06T04:06:14.638Z,54.7029
2023-04-06T04:07:15.758Z,54.7206
2023-04-06T04:08:17.079Z,54.7368
2023-04-06T04:09:17.579Z,54.7556
2023-04-06T04:10:18.809Z,54.7668
2023-04-06T04:11:20.058Z,54.7772
2023-04-06T04:12:21.344Z,54.7907
2023-04-06T04:13:22.517Z,54.8000
2023-04-06T04:14:23.814Z,54.8099
2023-04-06T04:15:25.076Z,54.8205
2023-04-06T04:16:25.258Z,54.8296
2023-04-06T04:17:25.466Z,54.8384
2023-04-06T04:18:25.553Z,54.8439
2023-04-06T04:19:25.998Z,54.8549
2023-04-06T04:20:27.314Z,54.8634
2023-04-06T04:21:28.479Z,54.8728
2023-04-06T04:22:29.792Z,54.8811
2023-04-06T04:23:30.914Z,54.8918
2023-04-06T04:24:31.578Z,54.9044
2023-04-06T04:25:32.685Z,54.9174
2023-04-06T04:26:34.035Z,54.9269
2023-04-06T04:27:35.160Z,54.9401
2023-04-06T04:28:36.525Z,54.9516
2023-04-06T04:29:37.029Z,54.9574
2023-04-06T04:30:38.339Z,54.9554
2023-04-06T04:31:39.530Z,54.9547
2023-04-06T04:32:39.546Z,54.9517
2023-04-06T04:33:40.865Z,54.9567
2023-04-06T04:34:41.996Z,54.9694
2023-04-06T04:35:42.204Z,54.9833
2023-04-06T04:36:43.491Z,54.9957
2023-04-06T04:38:44.820Z,55.0270
2023-04-06T04:39:45.356Z,55.0437
2023-04-06T04:40:46.659Z,55.0574
2023-04-06T04:42:47.677Z,55.0617
2023-04-06T04:43:49.136Z,55.0564
2023-04-06T04:44:50.216Z,55.0532
2023-04-06T04:46:51.374Z,55.0543
2023-04-06T04:47:51.563Z,55.0598
2023-04-06T04:48:52.795Z,55.0657
2023-04-06T04:49:54.046Z,55.0744
2023-04-06T04:50:55.194Z,55.0864
2023-04-06T04:51:56.565Z,55.0982
2023-04-06T04:52:57.805Z,55.1147
2023-04-06T04:53:58.673Z,55.1358
2023-04-06T04:54:59.813Z,55.1518
2023-04-06T04:56:01.133Z,55.1680
2023-04-06T04:57:02.302Z,55.1811
2023-04-06T04:58:02.311Z,55.1962
2023-04-06T04:59:03.612Z,55.2098
2023-04-06T05:00:04.150Z,55.2261
2023-04-06T05:01:05.445Z,55.2372
2023-04-06T05:02:06.294Z,55.2559
2023-04-06T05:03:06.881Z,55.2782
2023-04-06T05:04:07.961Z,55.2847
2023-04-06T05:05:09.237Z,55.2913
2023-04-06T05:06:12.864Z,55.2980
2023-04-06T05:07:11.898Z,55.3098
2023-04-06T05:08:12.063Z,55.3189
2023-04-06T05:09:13.305Z,55.3276
2023-04-06T05:10:13.355Z,55.3400
2023-04-06T05:11:14.678Z,55.3490
2023-04-06T05:12:14.693Z,55.3555
2023-04-06T05:13:15.956Z,55.3636
2023-04-06T05:14:16.780Z,55.3665
2023-04-06T05:15:17.020Z,55.3683
2023-04-06T05:16:17.386Z,55.3646
2023-04-06T05:17:17.441Z,55.3652
2023-04-06T05:18:17.673Z,55.3638
2023-04-06T05:19:18.459Z,55.3617
2023-04-06T05:20:18.478Z,55.3618
2023-04-06T05:21:19.706Z,55.3525
2023-04-06T05:22:21.059Z,55.3433
2023-04-06T05:23:21.215Z,55.3369
2023-04-06T05:24:22.516Z,55.3278
2023-04-06T05:25:22.876Z,55.3217
2023-04-06T05:28:25.390Z,55.3046
2023-04-06T05:29:25.860Z,55.2915
2023-04-06T05:30:26.542Z,55.2775
2023-04-06T05:31:27.893Z,55.2673
2023-04-06T05:32:28.152Z,55.2580
2023-04-06T05:33:28.354Z,55.2497
2023-04-06T05:34:28.795Z,55.2433
2023-04-06T05:35:28.769Z,55.2394
2023-04-06T05:36:28.772Z,55.2314
2023-04-06T05:37:30.051Z,55.2256
2023-04-06T05:38:30.412Z,55.2176
2023-04-06T05:39:30.333Z,55.2114
2023-04-06T05:40:30.542Z,55.2020
2023-04-06T05:41:31.912Z,55.1815
2023-04-06T05:42:32.285Z,55.1560
2023-04-06T05:43:33.681Z,55.1279
2023-04-06T05:44:33.748Z,55.0992
2023-04-06T05:45:35.203Z,55.0736
2023-04-06T05:46:36.591Z,55.0490
2023-04-06T05:47:36.720Z,55.0283
2023-04-06T05:48:37.088Z,55.0112
2023-04-06T05:49:37.379Z,54.9985
2023-04-06T05:50:39.061Z,54.9864
2023-04-06T05:51:39.106Z,54.9679
2023-04-06T05:52:40.446Z,54.9487
2023-04-06T05:53:40.996Z,54.9308
2023-04-06T05:54:42.264Z,54.9118
2023-04-06T05:55:43.639Z,54.8903
2023-04-06T05:56:44.876Z,54.8687
2023-04-06T05:57:45.078Z,54.8403
2023-04-06T05:58:45.142Z,54.8186
2023-04-06T05:59:45.392Z,54.7898
2023-04-06T06:00:46.611Z,54.7524
2023-04-06T06:01:46.841Z,54.7152
2023-04-06T06:02:47.512Z,54.6770
2023-04-06T06:03:47.760Z,54.6293
2023-04-06T06:04:49.038Z,54.5747
2023-04-06T06:05:49.669Z,54.5273
2023-04-06T06:06:50.198Z,54.4893
2023-04-06T06:07:51.531Z,54.4542
2023-04-06T06:08:51.601Z,54.4238
2023-04-06T06:09:51.787Z,54.3938
2023-04-06T06:10:51.937Z,54.3704
2023-04-06T06:11:53.164Z,54.3477
2023-04-06T06:12:53.334Z,54.3273
2023-04-06T06:13:53.339Z,54.3109
2023-04-06T06:14:54.830Z,54.2912
2023-04-06T06:15:54.886Z,54.2732
2023-04-06T06:16:55.190Z,54.2560
2023-04-06T06:17:55.318Z,54.2350
2023-04-06T06:18:55.636Z,54.2137
2023-04-06T06:19:56.054Z,54.1903
2023-04-06T06:20:56.293Z,54.1608
2023-04-06T06:21:57.729Z,54.1263
2023-04-06T06:22:58.925Z,54.0893
2023-04-06T06:23:59.332Z,54.0999
2023-04-06T06:25:00.462Z,54.1266
2023-04-06T06:26:00.808Z,54.1113
2023-04-06T06:27:01.119Z,54.0682
2023-04-06T06:28:01.396Z,54.0064
2023-04-06T06:29:02.758Z,53.9411
2023-04-06T06:30:02.811Z,53.8680
2023-04-06T06:31:03.879Z,53.8064
2023-04-06T06:32:04.241Z,53.7632
2023-04-06T06:33:04.439Z,53.7512
2023-04-06T06:34:04.508Z,53.7384
2023-04-06T06:35:05.865Z,53.7227
2023-04-06T06:36:06.121Z,53.7033
2023-04-06T06:37:06.328Z,53.7094
2023-04-06T06:38:06.444Z,53.7154
2023-04-06T06:39:07.106Z,53.7080
2023-04-06T06:40:07.110Z,53.7146
2023-04-06T06:41:07.229Z,53.7420
2023-04-06T06:42:07.319Z,53.7946
2023-04-06T06:43:07.723Z,53.8750
2023-04-06T06:44:09.352Z,53.9387
2023-04-06T06:45:09.569Z,53.9733
2023-04-06T06:46:09.880Z,53.9770
2023-04-06T06:47:09.928Z,53.9446
2023-04-06T06:48:10.276Z,53.8850
2023-04-06T06:49:10.790Z,53.8123
2023-04-06T06:50:12.135Z,53.7248
2023-04-06T06:51:12.180Z,53.6185
2023-04-06T06:52:13.449Z,53.4962
2023-04-06T06:53:13.760Z,53.3476
2023-04-06T06:54:15.022Z,53.1650
2023-04-06T06:55:15.200Z,52.9534
2023-04-06T06:56:16.506Z,52.7075
2023-04-06T06:57:16.803Z,52.4445
2023-04-06T06:58:18.054Z,52.1722
2023-04-06T06:59:18.434Z,51.9380
2023-04-06T07:00:19.339Z,51.7452
2023-04-06T07:01:19.590Z,51.5698
2023-04-06T07:02:19.928Z,51.4099
2023-04-06T07:03:20.379Z,51.2781
2023-04-06T07:04:21.455Z,51.1568
2023-04-06T07:05:29.185Z,51.0583
2023-04-06T07:06:29.373Z,50.9975
2023-04-06T07:07:30.742Z,50.9661
2023-04-06T07:08:30.975Z,50.9760
2023-04-06T07:09:32.164Z,50.9664
2023-04-06T07:10:33.677Z,50.9687
2023-04-06T07:11:34.068Z,50.9877
2023-04-06T07:12:36.530Z,51.0085
2023-04-06T07:13:37.782Z,51.0607
2023-04-06T07:14:37.862Z,51.0942
2023-04-06T07:15:39.093Z,51.1522
2023-04-06T07:16:40.230Z,51.2371
2023-04-06T07:17:40.435Z,51.2819
2023-04-06T07:18:40.620Z,51.3217
2023-04-06T07:19:41.974Z,51.3425
2023-04-06T07:20:43.428Z,51.3624
2023-04-06T07:21:44.753Z,51.3792
2023-04-06T07:22:46.324Z,51.3959
2023-04-06T07:23:46.409Z,51.4158
2023-04-06T07:24:47.009Z,51.4475
2023-04-06T07:25:47.013Z,51.4878
2023-04-06T07:26:47.284Z,51.5179
2023-04-06T07:27:47.255Z,51.5408
2023-04-06T07:28:47.207Z,51.5286
2023-04-06T07:29:47.592Z,51.4821
2023-04-06T07:30:47.601Z,51.4273
2023-04-06T07:31:48.312Z,51.3520
2023-04-06T07:32:48.994Z,51.2762
2023-04-06T07:33:49.026Z,51.1776
2023-04-06T07:34:49.112Z,51.0601
2023-04-06T07:35:49.740Z,50.9291
2023-04-06T07:36:50.607Z,50.7933
2023-04-06T07:37:51.967Z,50.6456
2023-04-06T07:38:52.535Z,50.5140
2023-04-06T07:39:53.722Z,50.4562
2023-04-06T07:40:53.969Z,50.4499
2023-04-06T07:41:54.218Z,50.4501
2023-04-06T07:42:56.176Z,50.4414
2023-04-06T07:43:55.363Z,50.4129
2023-04-06T07:44:55.889Z,50.3816
2023-04-06T07:45:55.941Z,50.3446
2023-04-06T07:46:56.390Z,50.3163
2023-04-06T07:47:56.791Z,50.2926
2023-04-06T07:48:57.113Z,50.2799
2023-04-06T07:49:57.147Z,50.2871
2023-04-06T07:50:57.170Z,50.3104
2023-04-06T07:51:57.444Z,50.3341
2023-04-06T07:52:57.420Z,50.3684
2023-04-06T07:53:58.862Z,50.3984
2023-04-06T07:54:59.413Z,50.4279
2023-04-06T07:56:00.731Z,50.4506
2023-04-06T07:57:00.785Z,50.4805
2023-04-06T07:58:00.877Z,50.5296
2023-04-06T07:59:02.075Z,50.5939
2023-04-06T08:00:02.287Z,50.6591
2023-04-06T08:01:02.501Z,50.7386
2023-04-06T08:02:02.594Z,50.8249
2023-04-06T08:03:03.676Z,50.9067
2023-04-06T08:04:03.913Z,50.9992
2023-04-06T08:05:04.041Z,51.1042
2023-04-06T08:06:04.292Z,51.1913
2023-04-06T08:07:04.626Z,51.2422
2023-04-06T08:08:04.628Z,51.2771
2023-04-06T08:09:04.987Z,51.3468
2023-04-06T08:10:06.401Z,51.4437
2023-04-06T08:11:06.576Z,51.5161
2023-04-06T08:12:06.876Z,51.5448
2023-04-06T08:13:06.956Z,51.5373
2023-04-06T08:14:07.387Z,51.5173
2023-04-06T08:15:08.103Z,51.4951
2023-04-06T08:16:08.733Z,51.4733
2023-04-06T08:17:09.500Z,51.4534
2023-04-06T08:18:09.727Z,51.4344
2023-04-06T08:19:11.364Z,51.4247
2023-04-06T08:20:11.700Z,51.4331
2023-04-06T08:21:11.691Z,51.4498
2023-04-06T08:22:11.952Z,51.4464
2023-04-06T08:23:12.588Z,51.4293
2023-04-06T08:24:13.497Z,51.4070
2023-04-06T08:25:13.501Z,51.3799
2023-04-06T08:26:13.697Z,51.3574
2023-04-06T08:27:13.748Z,51.3269
2023-04-06T08:28:15.177Z,51.3023
2023-04-06T08:29:15.636Z,51.2824
2023-04-06T08:30:17.026Z,51.2717
2023-04-06T08:31:17.594Z,51.2850
2023-04-06T08:32:17.776Z,51.3158
2023-04-06T08:33:18.171Z,51.3519
2023-04-06T08:34:19.383Z,51.4345
2023-04-06T08:35:19.574Z,51.4591
2023-04-06T08:36:19.947Z,51.4084
2023-04-06T08:37:21.270Z,51.3433
2023-04-06T08:38:21.468Z,51.2898
2023-04-06T08:39:21.447Z,51.2509
2023-04-06T08:40:21.677Z,51.2138
2023-04-06T08:41:22.319Z,51.1714
2023-04-06T08:42:23.680Z,51.1494
2023-04-06T08:43:23.750Z,51.1437
2023-04-06T08:44:25.085Z,51.1380
2023-04-06T08:45:25.475Z,51.1072
2023-04-06T08:46:25.894Z,51.0577
2023-04-06T08:47:26.255Z,51.0091
2023-04-06T08:48:26.909Z,50.9697
2023-04-06T08:49:27.150Z,50.9322
2023-04-06T08:50:28.565Z,50.8915
2023-04-06T08:51:30.165Z,50.8503
2023-04-06T08:52:31.533Z,50.8257
2023-04-06T08:53:32.005Z,50.8103
2023-04-06T08:54:32.154Z,50.7872
2023-04-06T08:55:33.693Z,50.7967
2023-04-06T08:56:35.038Z,50.8254
2023-04-06T08:57:36.723Z,50.8184
2023-04-06T08:58:38.546Z,50.7893
2023-04-06T08:59:37.661Z,50.7502
2023-04-06T09:00:38.227Z,50.7078
2023-04-06T09:01:39.264Z,50.6814
2023-04-06T09:02:40.069Z,50.6701
2023-04-06T09:03:41.143Z,50.6387
2023-04-06T09:04:42.318Z,50.6032
2023-04-06T09:05:42.521Z,50.5701
2023-04-06T09:06:42.735Z,50.5293
2023-04-06T09:07:42.825Z,50.4910
2023-04-06T09:08:42.982Z,50.4752
2023-04-06T09:09:43.080Z,50.4551
2023-04-06T09:10:43.415Z,50.4247
2023-04-06T09:11:44.763Z,50.3778
2023-04-06T09:12:45.124Z,50.3306
2023-04-06T09:13:45.334Z,50.2914
2023-04-06T09:14:45.466Z,50.2519
2023-04-06T09:15:45.718Z,50.2138
2023-04-06T09:16:46.509Z,50.1633
2023-04-06T09:17:46.924Z,50.1060
2023-04-06T09:18:47.255Z,50.0294
2023-04-06T09:19:47.351Z,49.9445
2023-04-06T09:20:47.701Z,49.8495
2023-04-06T09:21:47.869Z,49.7352
2023-04-06T09:22:48.284Z,49.6267
2023-04-06T09:23:48.506Z,49.5320
2023-04-06T09:24:49.292Z,49.4459
2023-04-06T09:25:49.662Z,49.3548
2023-04-06T09:26:50.057Z,49.2691
2023-04-06T09:27:50.158Z,49.1946
2023-04-06T09:28:50.402Z,49.1155
2023-04-06T09:29:50.506Z,49.0171
2023-04-06T09:30:50.974Z,48.9171
2023-04-06T09:31:51.334Z,48.8186
2023-04-06T09:32:52.469Z,48.7214
2023-04-06T09:33:52.954Z,48.6335
2023-04-06T09:34:53.870Z,48.5735
2023-04-06T09:35:54.123Z,48.5314
2023-04-06T09:36:54.667Z,48.4966
2023-04-06T09:37:54.688Z,48.4545
2023-04-06T09:38:54.953Z,48.4183
2023-04-06T09:39:55.008Z,48.3717
2023-04-06T09:41:01.818Z,48.3018
2023-04-06T09:42:01.936Z,48.2307
2023-04-06T09:43:02.193Z,48.1446
2023-04-06T09:44:02.334Z,48.0697
2023-04-06T09:45:02.638Z,47.9963
2023-04-06T09:46:02.750Z,47.9285
2023-04-06T09:47:03.891Z,47.8762
2023-04-06T09:48:04.019Z,47.7690
2023-04-06T09:49:04.544Z,47.6770
2023-04-06T09:50:05.213Z,47.6045
2023-04-06T09:51:05.497Z,47.5149
2023-04-06T09:52:07.008Z,47.4350
2023-04-06T09:53:07.237Z,47.3501
2023-04-06T09:54:07.742Z,47.2640
2023-04-06T09:55:08.310Z,47.1950
2023-04-06T09:56:08.581Z,47.1442
2023-04-06T09:57:08.997Z,47.1049
2023-04-06T09:58:09.367Z,47.0642
2023-04-06T09:59:10.461Z,47.0273
2023-04-06T10:00:11.501Z,46.9916
2023-04-06T10:01:12.013Z,46.9402
2023-04-06T10:02:12.509Z,46.8596
2023-04-06T10:03:13.401Z,46.7660
2023-04-06T10:04:14.881Z,46.6970
2023-04-06T10:05:15.661Z,46.6440
2023-04-06T10:06:15.817Z,46.6074
2023-04-06T10:07:16.151Z,46.5748
2023-04-06T10:08:17.099Z,46.5380
2023-04-06T10:09:17.304Z,46.4641
2023-04-06T10:10:17.597Z,46.3909
2023-04-06T10:11:18.080Z,46.3183
2023-04-06T10:12:18.236Z,46.2780
2023-04-06T10:13:18.361Z,46.2377
2023-04-06T10:14:18.632Z,46.1657
2023-04-06T10:15:20.304Z,46.0785
2023-04-06T10:16:19.486Z,45.9982
2023-04-06T10:17:19.850Z,45.9328
2023-04-06T10:18:20.493Z,45.8748
2023-04-06T10:19:20.700Z,45.8302
2023-04-06T10:20:20.873Z,45.7958
2023-04-06T10:21:21.926Z,45.7708
2023-04-06T10:22:22.199Z,45.7550
2023-04-06T10:23:22.567Z,45.7535
2023-04-06T10:24:22.724Z,45.7560
2023-04-06T10:25:22.808Z,44.7901
2023-04-06T10:26:22.942Z,43.2281
2023-04-06T10:27:24.762Z,42.2175
2023-04-06T10:28:23.950Z,41.2053
2023-04-06T10:29:24.143Z,40.1029
2023-04-06T10:30:24.217Z,39.7041
2023-04-06T10:31:24.740Z,39.8753
2023-04-06T10:32:25.132Z,39.0404
2023-04-06T10:33:25.475Z,40.1319
2023-04-06T10:34:25.653Z,40.1044
2023-04-06T10:35:25.676Z,40.4886
2023-04-06T10:36:26.164Z,40.1933
2023-04-06T10:37:26.452Z,39.6294
2023-04-06T10:38:26.506Z,39.5152
2023-04-06T10:39:26.845Z,39.1612
2023-04-06T10:40:27.041Z,38.7465
2023-04-06T10:41:27.289Z,38.1814
2023-04-06T10:42:27.376Z,38.5717
2023-04-06T10:46:14.319Z,38.7555
2023-04-06T10:47:14.583Z,38.9728
2023-04-06T10:48:14.873Z,39.1507
2023-04-06T10:49:14.884Z,39.3529
2023-04-06T10:50:14.976Z,39.5521
2023-04-06T10:51:15.034Z,39.7349
2023-04-06T10:52:15.078Z,39.8886
2023-04-06T10:53:15.232Z,40.0081
2023-04-06T10:54:16.368Z,40.0854
2023-04-06T10:55:16.529Z,40.1403
2023-04-06T10:56:16.810Z,40.1812
2023-04-06T10:57:18.076Z,40.1851
2023-04-06T10:58:18.185Z,40.1916
2023-04-06T10:59:18.388Z,40.1787
2023-04-06T11:00:18.728Z,40.1386
2023-04-06T11:01:19.133Z,40.1137
2023-04-06T11:02:19.389Z,40.0487
2023-04-06T11:03:19.725Z,39.9596
2023-04-06T11:04:20.162Z,39.8569
2023-04-06T11:05:20.112Z,39.7338
2023-04-06T11:06:20.245Z,39.6127
2023-04-06T11:07:20.390Z,39.4745
2023-04-06T11:08:21.534Z,39.2657
2023-04-06T11:09:21.657Z,39.0304
2023-04-06T11:10:21.616Z,38.7884
2023-04-06T11:11:21.904Z,38.5399
2023-04-06T11:12:21.998Z,38.3414
2023-04-06T11:13:22.058Z,38.3186
2023-04-06T11:14:22.164Z,38.2236
2023-04-06T11:15:22.757Z,38.1432
2023-04-06T11:16:22.842Z,38.0795
2023-04-06T11:17:23.849Z,37.7682
2023-04-06T11:18:24.368Z,37.2573
2023-04-06T11:19:24.971Z,37.1937
2023-04-06T11:20:25.058Z,36.9952
2023-04-06T11:21:26.270Z,36.8727
2023-04-06T11:22:26.754Z,36.9196
2023-04-06T11:23:26.842Z,37.0061
2023-04-06T11:24:26.914Z,36.9966
2023-04-06T11:25:27.039Z,36.9462
2023-04-06T11:26:27.778Z,36.8245
2023-04-06T11:27:27.818Z,36.7252
2023-04-06T11:28:29.095Z,36.6907
2023-04-06T11:29:29.434Z,36.7418
2023-04-06T11:30:30.626Z,36.6712
2023-04-06T11:31:31.192Z,36.6021
2023-04-06T11:32:31.334Z,36.5635
2023-04-06T11:33:31.561Z,36.5067
2023-04-06T11:34:31.750Z,36.4685
2023-04-06T11:35:31.829Z,36.4020
2023-04-06T11:36:33.127Z,36.2613
2023-04-06T11:37:33.225Z,36.2356
2023-04-06T11:38:34.573Z,36.2153
2023-04-06T11:39:35.823Z,36.0549
2023-04-06T11:40:37.108Z,35.9509
2023-04-06T11:41:37.278Z,35.9122
2023-04-06T11:42:37.580Z,35.9440
2023-04-06T11:43:37.665Z,35.9683
2023-04-06T11:44:37.778Z,36.0072
2023-04-06T11:45:37.915Z,35.9716
2023-04-06T11:46:38.210Z,35.8996
2023-04-06T11:47:38.361Z,35.7967
2023-04-06T11:48:39.154Z,35.7402
2023-04-06T11:49:39.627Z,35.6454
2023-04-06T11:50:41.126Z,35.5683
2023-04-06T11:51:42.374Z,35.4173
2023-04-06T11:52:42.572Z,35.1832
2023-04-06T11:53:43.740Z,35.0284
2023-04-06T11:54:44.001Z,34.8706
2023-04-06T11:55:44.310Z,34.5737
2023-04-06T11:56:44.542Z,34.2282
2023-04-06T11:57:44.536Z,33.8326
2023-04-06T11:58:45.501Z,33.3792
2023-04-06T11:59:46.659Z,32.9900
2023-04-06T12:00:47.613Z,32.7088
2023-04-06T12:01:47.591Z,32.2768
2023-04-06T12:02:47.794Z,31.8653
2023-04-06T12:03:49.101Z,31.3570
2023-04-06T12:04:49.441Z,30.6344
2023-04-06T12:05:49.414Z,30.1915
2023-04-06T12:06:49.638Z,29.7767
2023-04-06T12:07:49.923Z,29.4211
2023-04-06T12:08:50.298Z,29.0496
2023-04-06T12:09:50.581Z,28.6774
2023-04-06T12:10:50.658Z,28.1475
2023-04-06T12:11:50.922Z,27.6718
2023-04-06T12:12:51.086Z,27.3328
2023-04-06T12:13:52.371Z,26.9650
2023-04-06T12:14:52.553Z,26.5582
2023-04-06T12:15:52.779Z,26.3207
2023-04-06T12:16:53.374Z,26.3028
2023-04-06T12:17:53.947Z,26.2505
2023-04-06T12:18:54.128Z,26.0106
2023-04-06T12:19:54.201Z,25.5643
2023-04-06T12:20:55.207Z,25.4350
2023-04-06T12:21:55.318Z,25.0856
2023-04-06T12:22:55.476Z,24.5895
2023-04-06T12:23:55.734Z,23.8466
2023-04-06T12:24:55.711Z,23.4578
2023-04-06T12:25:56.370Z,23.4353